sensor_id;sensor_type;location;lat;lon;timestamp;pressure;altitude;pressure_sealevel;temperature;humidity
18500;BME280;9379;52.134;11.576;2023-04-08T00:02:06;101502.50;;;9.74;93.12
18500;BME280;9379;52.134;11.576;2023-04-08T00:04:33;101496.00;;;9.65;94.03
18500;BME280;9379;52.134;11.576;2023-04-08T00:06:59;101504.16;;;9.87;92.82
18500;BME280;9379;52.134;11.576;2023-04-08T00:09:28;101508.53;;;9.63;93.25
18500;BME280;9379;52.134;11.576;2023-04-08T00:11:55;101505.09;;;8.97;96.32
18500;BME280;9379;52.134;11.576;2023-04-08T00:14:22;101496.34;;;9.73;94.09
18500;BME280;9379;52.134;11.576;2023-04-08T00:16:48;101496.50;;;9.83;92.85
18500;BME280;9379;52.134;11.576;2023-04-08T00:19:15;101492.50;;;9.77;93.00
18500;BME280;9379;52.134;11.576;2023-04-08T00:21:42;101502.41;;;9.50;93.67
18500;BME280;9379;52.134;11.576;2023-04-08T00:24:09;101495.06;;;9.66;93.64
18500;BME280;9379;52.134;11.576;2023-04-08T00:26:37;101490.13;;;9.98;92.06
18500;BME280;9379;52.134;11.576;2023-04-08T00:29:04;101498.97;;;9.60;93.68
18500;BME280;9379;52.134;11.576;2023-04-08T00:31:31;101493.38;;;9.52;94.04
18500;BME280;9379;52.134;11.576;2023-04-08T00:33:57;101491.47;;;10.04;91.69
18500;BME280;9379;52.134;11.576;2023-04-08T00:36:24;101492.34;;;9.91;92.12
18500;BME280;9379;52.134;11.576;2023-04-08T00:38:52;101506.94;;;9.60;93.54
18500;BME280;9379;52.134;11.576;2023-04-08T00:41:18;101493.88;;;9.57;93.38
18500;BME280;9379;52.134;11.576;2023-04-08T00:43:47;101495.38;;;9.49;93.59
18500;BME280;9379;52.134;11.576;2023-04-08T00:46:13;101494.06;;;9.80;94.02
18500;BME280;9379;52.134;11.576;2023-04-08T00:48:41;101490.78;;;9.13;96.40
18500;BME280;9379;52.134;11.576;2023-04-08T00:51:07;101496.22;;;9.36;95.52
18500;BME280;9379;52.134;11.576;2023-04-08T00:53:34;101483.72;;;9.51;94.63
18500;BME280;9379;52.134;11.576;2023-04-08T00:56:01;101495.69;;;9.70;93.63
18500;BME280;9379;52.134;11.576;2023-04-08T00:58:28;101507.16;;;9.32;95.19
18500;BME280;9379;52.134;11.576;2023-04-08T01:01:02;101504.59;;;9.43;94.72
18500;BME280;9379;52.134;11.576;2023-04-08T01:03:39;101499.63;;;9.64;94.02
18500;BME280;9379;52.134;11.576;2023-04-08T01:06:13;101501.09;;;9.81;92.59
18500;BME280;9379;52.134;11.576;2023-04-08T01:08:42;101499.72;;;9.75;93.41
18500;BME280;9379;52.134;11.576;2023-04-08T01:11:10;101496.75;;;9.67;93.97
18500;BME280;9379;52.134;11.576;2023-04-08T01:13:40;101497.28;;;9.47;96.51
18500;BME280;9379;52.134;11.576;2023-04-08T01:16:11;101485.91;;;9.70;93.78
18500;BME280;9379;52.134;11.576;2023-04-08T01:18:40;101495.91;;;9.41;95.11
18500;BME280;9379;52.134;11.576;2023-04-08T01:21:08;101492.09;;;9.45;95.66
18500;BME280;9379;52.134;11.576;2023-04-08T01:23:40;101509.81;;;9.32;96.20
18500;BME280;9379;52.134;11.576;2023-04-08T01:26:11;101508.25;;;9.02;98.01
18500;BME280;9379;52.134;11.576;2023-04-08T01:28:39;101505.00;;;9.12;97.50
18500;BME280;9379;52.134;11.576;2023-04-08T01:31:08;101505.44;;;9.18;97.19
18500;BME280;9379;52.134;11.576;2023-04-08T01:33:36;101497.59;;;9.42;96.03
18500;BME280;9379;52.134;11.576;2023-04-08T01:36:03;101502.69;;;9.32;96.68
18500;BME280;9379;52.134;11.576;2023-04-08T01:38:32;101496.53;;;9.45;95.62
18500;BME280;9379;52.134;11.576;2023-04-08T01:41:00;101498.44;;;9.55;95.42
18500;BME280;9379;52.134;11.576;2023-04-08T01:43:28;101501.94;;;9.56;95.12
18500;BME280;9379;52.134;11.576;2023-04-08T01:45:57;101497.19;;;9.61;94.92
18500;BME280;9379;52.134;11.576;2023-04-08T01:48:24;101495.66;;;9.82;93.63
18500;BME280;9379;52.134;11.576;2023-04-08T01:50:51;101509.50;;;9.75;93.80
18500;BME280;9379;52.134;11.576;2023-04-08T01:53:19;101513.59;;;9.91;92.84
18500;BME280;9379;52.134;11.576;2023-04-08T01:55:50;101503.75;;;9.68;93.87
18500;BME280;9379;52.134;11.576;2023-04-08T01:58:20;101505.66;;;9.66;94.46
18500;BME280;9379;52.134;11.576;2023-04-08T02:00:50;101469.78;;;9.60;93.53
18500;BME280;9379;52.134;11.576;2023-04-08T02:03:23;101501.41;;;9.25;96.10
18500;BME280;9379;52.134;11.576;2023-04-08T02:05:51;101504.72;;;9.42;96.10
18500;BME280;9379;52.134;11.576;2023-04-08T02:08:17;101500.59;;;9.63;94.20
18500;BME280;9379;52.134;11.576;2023-04-08T02:10:44;101508.53;;;9.38;95.88
18500;BME280;9379;52.134;11.576;2023-04-08T02:13:11;101503.50;;;8.95;96.95
18500;BME280;9379;52.134;11.576;2023-04-08T02:15:42;101502.38;;;9.37;96.26
18500;BME280;9379;52.134;11.576;2023-04-08T02:18:15;101498.69;;;9.52;95.88
18500;BME280;9379;52.134;11.576;2023-04-08T02:20:47;101511.22;;;9.50;95.43
18500;BME280;9379;52.134;11.576;2023-04-08T02:23:19;101507.47;;;9.53;95.80
18500;BME280;9379;52.134;11.576;2023-04-08T02:25:46;101509.91;;;9.56;95.67
18500;BME280;9379;52.134;11.576;2023-04-08T02:28:14;101514.03;;;9.47;95.29
18500;BME280;9379;52.134;11.576;2023-04-08T02:30:47;101510.66;;;9.58;95.21
18500;BME280;9379;52.134;11.576;2023-04-08T02:33:18;101509.59;;;9.86;94.46
18500;BME280;9379;52.134;11.576;2023-04-08T02:35:47;101504.91;;;9.77;94.20
18500;BME280;9379;52.134;11.576;2023-04-08T02:38:15;101508.81;;;9.84;93.87
18500;BME280;9379;52.134;11.576;2023-04-08T02:40:41;101511.75;;;10.05;92.58
18500;BME280;9379;52.134;11.576;2023-04-08T02:43:08;101512.44;;;9.70;94.01
18500;BME280;9379;52.134;11.576;2023-04-08T02:45:38;101525.94;;;9.67;94.73
18500;BME280;9379;52.134;11.576;2023-04-08T02:48:06;101518.81;;;9.80;94.04
18500;BME280;9379;52.134;11.576;2023-04-08T02:50:34;101515.63;;;9.37;96.12
18500;BME280;9379;52.134;11.576;2023-04-08T02:53:01;101515.56;;;9.39;96.97
18500;BME280;9379;52.134;11.576;2023-04-08T02:55:28;101506.41;;;9.43;96.50
18500;BME280;9379;52.134;11.576;2023-04-08T02:57:54;101521.72;;;9.64;95.23
18500;BME280;9379;52.134;11.576;2023-04-08T03:00:21;101520.66;;;9.54;95.75
18500;BME280;9379;52.134;11.576;2023-04-08T03:02:48;101521.06;;;9.86;94.05
18500;BME280;9379;52.134;11.576;2023-04-08T03:05:15;101524.31;;;10.03;93.41
18500;BME280;9379;52.134;11.576;2023-04-08T03:07:43;101531.59;;;9.62;94.98
18500;BME280;9379;52.134;11.576;2023-04-08T03:10:10;101529.75;;;9.88;93.65
18500;BME280;9379;52.134;11.576;2023-04-08T03:12:37;101521.56;;;9.91;92.80
18500;BME280;9379;52.134;11.576;2023-04-08T03:15:04;101519.44;;;10.09;92.34
18500;BME280;9379;52.134;11.576;2023-04-08T03:17:31;101540.38;;;9.76;93.22
18500;BME280;9379;52.134;11.576;2023-04-08T03:19:58;101539.44;;;9.64;94.84
18500;BME280;9379;52.134;11.576;2023-04-08T03:22:25;101536.44;;;9.94;93.33
18500;BME280;9379;52.134;11.576;2023-04-08T03:24:53;101532.53;;;9.74;94.24
18500;BME280;9379;52.134;11.576;2023-04-08T03:27:20;101527.50;;;9.82;93.92
18500;BME280;9379;52.134;11.576;2023-04-08T03:29:47;101528.16;;;9.86;94.53
18500;BME280;9379;52.134;11.576;2023-04-08T03:32:14;101523.38;;;9.78;94.40
18500;BME280;9379;52.134;11.576;2023-04-08T03:34:40;101523.81;;;9.98;93.89
18500;BME280;9379;52.134;11.576;2023-04-08T03:37:07;101526.38;;;9.86;93.57
18500;BME280;9379;52.134;11.576;2023-04-08T03:39:34;101530.28;;;9.55;95.85
18500;BME280;9379;52.134;11.576;2023-04-08T03:42:02;101532.38;;;9.25;97.15
18500;BME280;9379;52.134;11.576;2023-04-08T03:44:29;101528.19;;;9.73;95.06
18500;BME280;9379;52.134;11.576;2023-04-08T03:46:57;101530.06;;;9.97;93.63
18500;BME280;9379;52.134;11.576;2023-04-08T03:49:23;101527.00;;;9.64;94.95
18500;BME280;9379;52.134;11.576;2023-04-08T03:51:50;101526.03;;;9.78;94.06
18500;BME280;9379;52.134;11.576;2023-04-08T03:54:17;101543.25;;;9.73;94.72
18500;BME280;9379;52.134;11.576;2023-04-08T03:56:47;101551.53;;;9.81;95.25
18500;BME280;9379;52.134;11.576;2023-04-08T03:59:16;101544.50;;;9.92;94.42
18500;BME280;9379;52.134;11.576;2023-04-08T04:01:42;101550.69;;;9.80;94.51
18500;BME280;9379;52.134;11.576;2023-04-08T04:04:09;101554.19;;;9.81;94.33
18500;BME280;9379;52.134;11.576;2023-04-08T04:06:36;101552.91;;;9.86;94.53
18500;BME280;9379;52.134;11.576;2023-04-08T04:09:03;101548.88;;;9.81;95.11
18500;BME280;9379;52.134;11.576;2023-04-08T04:11:29;101555.13;;;9.80;94.58
18500;BME280;9379;52.134;11.576;2023-04-08T04:13:56;101554.84;;;9.84;94.67
18500;BME280;9379;52.134;11.576;2023-04-08T04:16:24;101554.91;;;10.08;93.43
18500;BME280;9379;52.134;11.576;2023-04-08T04:18:51;101558.34;;;9.85;93.89
18500;BME280;9379;52.134;11.576;2023-04-08T04:21:18;101550.16;;;9.75;94.45
18500;BME280;9379;52.134;11.576;2023-04-08T04:23:45;101558.63;;;9.80;94.62
18500;BME280;9379;52.134;11.576;2023-04-08T04:26:12;101553.22;;;9.56;95.91
18500;BME280;9379;52.134;11.576;2023-04-08T04:28:39;101563.09;;;9.67;95.99
18500;BME280;9379;52.134;11.576;2023-04-08T04:31:06;101570.31;;;9.65;95.85
18500;BME280;9379;52.134;11.576;2023-04-08T04:33:34;101568.19;;;9.83;94.57
18500;BME280;9379;52.134;11.576;2023-04-08T04:36:01;101571.28;;;9.89;94.46
18500;BME280;9379;52.134;11.576;2023-04-08T04:38:30;101540.88;;;9.93;93.94
18500;BME280;9379;52.134;11.576;2023-04-08T04:40:57;101564.78;;;10.19;92.60
18500;BME280;9379;52.134;11.576;2023-04-08T04:43:24;101585.28;;;10.04;93.45
18500;BME280;9379;52.134;11.576;2023-04-08T04:45:50;101590.38;;;9.69;95.01
18500;BME280;9379;52.134;11.576;2023-04-08T04:48:17;101589.97;;;9.75;95.49
18500;BME280;9379;52.134;11.576;2023-04-08T04:50:53;101591.44;;;9.67;96.14
18500;BME280;9379;52.134;11.576;2023-04-08T04:53:20;101601.13;;;9.68;96.37
18500;BME280;9379;52.134;11.576;2023-04-08T04:55:47;101599.00;;;9.85;95.32
18500;BME280;9379;52.134;11.576;2023-04-08T04:58:13;101600.03;;;9.45;96.72
18500;BME280;9379;52.134;11.576;2023-04-08T05:00:40;101595.53;;;9.32;97.09
18500;BME280;9379;52.134;11.576;2023-04-08T05:03:07;101597.09;;;9.62;96.49
18500;BME280;9379;52.134;11.576;2023-04-08T05:05:34;101583.69;;;9.51;97.00
18500;BME280;9379;52.134;11.576;2023-04-08T05:08:02;101603.03;;;9.65;96.91
18500;BME280;9379;52.134;11.576;2023-04-08T05:10:29;101603.78;;;9.68;96.44
18500;BME280;9379;52.134;11.576;2023-04-08T05:12:56;101602.19;;;9.65;96.83
18500;BME280;9379;52.134;11.576;2023-04-08T05:15:23;101609.31;;;9.77;95.80
18500;BME280;9379;52.134;11.576;2023-04-08T05:17:50;101616.50;;;9.50;97.20
18500;BME280;9379;52.134;11.576;2023-04-08T05:20:16;101621.72;;;9.77;96.22
18500;BME280;9379;52.134;11.576;2023-04-08T05:22:43;101626.66;;;9.43;97.98
18500;BME280;9379;52.134;11.576;2023-04-08T05:25:12;101611.69;;;9.42;97.90
18500;BME280;9379;52.134;11.576;2023-04-08T05:27:38;101622.34;;;9.15;99.00
18500;BME280;9379;52.134;11.576;2023-04-08T05:30:07;101629.00;;;9.48;98.42
18500;BME280;9379;52.134;11.576;2023-04-08T05:32:34;101625.09;;;9.14;99.39
18500;BME280;9379;52.134;11.576;2023-04-08T05:35:01;101622.03;;;9.20;98.66
18500;BME280;9379;52.134;11.576;2023-04-08T05:37:28;101633.44;;;9.34;98.93
18500;BME280;9379;52.134;11.576;2023-04-08T05:39:55;101636.44;;;9.43;98.54
18500;BME280;9379;52.134;11.576;2023-04-08T05:42:23;101632.34;;;9.77;96.79
18500;BME280;9379;52.134;11.576;2023-04-08T05:44:50;101632.56;;;9.61;97.42
18500;BME280;9379;52.134;11.576;2023-04-08T05:47:16;101628.16;;;9.60;97.35
18500;BME280;9379;52.134;11.576;2023-04-08T05:52:18;101643.78;;;9.25;99.66
18500;BME280;9379;52.134;11.576;2023-04-08T05:54:45;101637.59;;;8.85;100.00
18500;BME280;9379;52.134;11.576;2023-04-08T05:57:12;101650.22;;;8.81;100.00
18500;BME280;9379;52.134;11.576;2023-04-08T05:59:42;101648.84;;;8.88;100.00
18500;BME280;9379;52.134;11.576;2023-04-08T06:02:10;101645.56;;;9.12;100.00
18500;BME280;9379;52.134;11.576;2023-04-08T06:04:37;101626.00;;;9.27;99.72
18500;BME280;9379;52.134;11.576;2023-04-08T06:07:04;101647.09;;;9.68;97.78
18500;BME280;9379;52.134;11.576;2023-04-08T06:09:34;101657.91;;;9.52;98.62
18500;BME280;9379;52.134;11.576;2023-04-08T06:12:02;101634.50;;;9.32;98.33
18500;BME280;9379;52.134;11.576;2023-04-08T06:14:29;101638.41;;;9.26;98.87
18500;BME280;9379;52.134;11.576;2023-04-08T06:16:57;101654.63;;;9.61;98.56
18500;BME280;9379;52.134;11.576;2023-04-08T06:19:24;101648.28;;;9.37;99.16
18500;BME280;9379;52.134;11.576;2023-04-08T06:21:50;101665.75;;;9.54;98.70
18500;BME280;9379;52.134;11.576;2023-04-08T06:24:23;101669.00;;;9.84;96.98
18500;BME280;9379;52.134;11.576;2023-04-08T06:26:50;101643.78;;;9.52;97.21
18500;BME280;9379;52.134;11.576;2023-04-08T06:29:18;101676.66;;;9.89;96.48
18500;BME280;9379;52.134;11.576;2023-04-08T06:31:45;101667.44;;;9.55;97.36
18500;BME280;9379;52.134;11.576;2023-04-08T06:34:13;101661.97;;;9.83;96.41
18500;BME280;9379;52.134;11.576;2023-04-08T06:36:40;101667.69;;;9.64;97.51
18500;BME280;9379;52.134;11.576;2023-04-08T06:39:07;101673.81;;;9.52;97.79
18500;BME280;9379;52.134;11.576;2023-04-08T06:41:34;101676.41;;;9.27;99.11
18500;BME280;9379;52.134;11.576;2023-04-08T06:44:01;101666.81;;;8.97;100.00
18500;BME280;9379;52.134;11.576;2023-04-08T06:46:28;101674.03;;;9.49;99.36
18500;BME280;9379;52.134;11.576;2023-04-08T06:48:54;101668.03;;;9.33;99.68
18500;BME280;9379;52.134;11.576;2023-04-08T06:51:23;101683.41;;;9.68;97.70
18500;BME280;9379;52.134;11.576;2023-04-08T06:53:50;101671.81;;;9.69;97.61
18500;BME280;9379;52.134;11.576;2023-04-08T06:56:16;101674.31;;;9.97;96.16
18500;BME280;9379;52.134;11.576;2023-04-08T06:58:45;101680.53;;;9.71;96.80
18500;BME280;9379;52.134;11.576;2023-04-08T07:01:12;101703.03;;;9.65;98.42
18500;BME280;9379;52.134;11.576;2023-04-08T07:03:40;101702.78;;;9.16;99.82
18500;BME280;9379;52.134;11.576;2023-04-08T07:06:07;101715.38;;;9.39;99.68
18500;BME280;9379;52.134;11.576;2023-04-08T07:08:35;101689.59;;;9.41;98.85
18500;BME280;9379;52.134;11.576;2023-04-08T07:11:03;101700.16;;;9.55;99.10
18500;BME280;9379;52.134;11.576;2023-04-08T07:13:31;101702.16;;;9.25;100.00
18500;BME280;9379;52.134;11.576;2023-04-08T07:15:57;101703.38;;;9.33;100.00
18500;BME280;9379;52.134;11.576;2023-04-08T07:18:24;101706.22;;;9.70;98.09
18500;BME280;9379;52.134;11.576;2023-04-08T07:20:52;101694.63;;;9.98;95.82
18500;BME280;9379;52.134;11.576;2023-04-08T07:23:19;101711.56;;;10.35;95.00
18500;BME280;9379;52.134;11.576;2023-04-08T07:25:48;101701.91;;;9.94;97.13
18500;BME280;9379;52.134;11.576;2023-04-08T07:28:14;101709.03;;;9.94;97.03
18500;BME280;9379;52.134;11.576;2023-04-08T07:30:41;101700.94;;;9.83;97.00
18500;BME280;9379;52.134;11.576;2023-04-08T07:33:08;101713.63;;;9.52;99.62
18500;BME280;9379;52.134;11.576;2023-04-08T07:35:35;101722.88;;;9.59;99.17
18500;BME280;9379;52.134;11.576;2023-04-08T07:38:02;101707.00;;;9.45;99.68
18500;BME280;9379;52.134;11.576;2023-04-08T07:40:29;101729.72;;;9.22;100.00
18500;BME280;9379;52.134;11.576;2023-04-08T07:42:57;101737.56;;;9.38;100.00
18500;BME280;9379;52.134;11.576;2023-04-08T07:45:24;101732.28;;;9.78;99.23
18500;BME280;9379;52.134;11.576;2023-04-08T07:47:53;101754.00;;;9.70;99.73
18500;BME280;9379;52.134;11.576;2023-04-08T07:50:20;101740.50;;;9.33;100.00
18500;BME280;9379;52.134;11.576;2023-04-08T07:52:47;101742.47;;;9.44;100.00
18500;BME280;9379;52.134;11.576;2023-04-08T07:55:14;101746.91;;;9.71;99.96
18500;BME280;9379;52.134;11.576;2023-04-08T07:57:41;101738.50;;;9.37;99.94
18500;BME280;9379;52.134;11.576;2023-04-08T08:00:10;101727.19;;;9.21;99.67
18500;BME280;9379;52.134;11.576;2023-04-08T08:02:39;101738.25;;;9.27;100.00
18500;BME280;9379;52.134;11.576;2023-04-08T08:05:07;101733.44;;;9.20;100.00
18500;BME280;9379;52.134;11.576;2023-04-08T08:07:34;101736.56;;;9.12;100.00
18500;BME280;9379;52.134;11.576;2023-04-08T08:10:01;101741.94;;;9.39;100.00
18500;BME280;9379;52.134;11.576;2023-04-08T08:12:28;101744.19;;;9.04;100.00
18500;BME280;9379;52.134;11.576;2023-04-08T08:14:55;101739.66;;;8.92;100.00
18500;BME280;9379;52.134;11.576;2023-04-08T08:17:24;101751.69;;;9.24;100.00
18500;BME280;9379;52.134;11.576;2023-04-08T08:19:54;101741.06;;;9.39;100.00
18500;BME280;9379;52.134;11.576;2023-04-08T08:22:21;101765.50;;;9.44;100.00
18500;BME280;9379;52.134;11.576;2023-04-08T08:24:48;101760.56;;;9.52;100.00
18500;BME280;9379;52.134;11.576;2023-04-08T08:27:20;101759.38;;;9.56;100.00
18500;BME280;9379;52.134;11.576;2023-04-08T08:29:47;101735.00;;;9.63;99.53
18500;BME280;9379;52.134;11.576;2023-04-08T08:32:14;101748.63;;;9.45;100.00
18500;BME280;9379;52.134;11.576;2023-04-08T08:34:43;101757.09;;;8.82;100.00
18500;BME280;9379;52.134;11.576;2023-04-08T08:37:10;101760.16;;;9.17;100.00
18500;BME280;9379;52.134;11.576;2023-04-08T08:39:37;101777.94;;;9.29;100.00
18500;BME280;9379;52.134;11.576;2023-04-08T08:42:04;101774.34;;;9.30;100.00
18500;BME280;9379;52.134;11.576;2023-04-08T08:44:31;101773.53;;;9.01;100.00
18500;BME280;9379;52.134;11.576;2023-04-08T08:46:59;101768.63;;;9.36;100.00
18500;BME280;9379;52.134;11.576;2023-04-08T08:49:26;101791.31;;;9.81;99.85
18500;BME280;9379;52.134;11.576;2023-04-08T08:51:55;101761.31;;;9.93;97.99
18500;BME280;9379;52.134;11.576;2023-04-08T08:54:22;101765.59;;;9.96;97.95
18500;BME280;9379;52.134;11.576;2023-04-08T08:56:55;101767.31;;;9.83;98.63
18500;BME280;9379;52.134;11.576;2023-04-08T08:59:22;101757.56;;;9.83;97.75
18500;BME280;9379;52.134;11.576;2023-04-08T09:01:49;101765.03;;;10.04;98.12
18500;BME280;9379;52.134;11.576;2023-04-08T09:04:17;101785.88;;;9.70;99.24
18500;BME280;9379;52.134;11.576;2023-04-08T09:06:48;101791.69;;;9.62;100.00
18500;BME280;9379;52.134;11.576;2023-04-08T09:09:16;101798.06;;;9.19;100.00
18500;BME280;9379;52.134;11.576;2023-04-08T09:11:45;101789.22;;;9.32;100.00
18500;BME280;9379;52.134;11.576;2023-04-08T09:14:20;101810.22;;;9.35;100.00
18500;BME280;9379;52.134;11.576;2023-04-08T09:16:47;101815.69;;;9.61;100.00
18500;BME280;9379;52.134;11.576;2023-04-08T09:19:15;101808.25;;;9.39;100.00
18500;BME280;9379;52.134;11.576;2023-04-08T09:21:42;101797.31;;;9.85;100.00
18500;BME280;9379;52.134;11.576;2023-04-08T09:24:27;101804.97;;;9.89;98.96
18500;BME280;9379;52.134;11.576;2023-04-08T09:26:54;101821.84;;;9.88;100.00
18500;BME280;9379;52.134;11.576;2023-04-08T09:29:25;101804.59;;;9.54;100.00
18500;BME280;9379;52.134;11.576;2023-04-08T09:31:53;101815.88;;;9.17;100.00
18500;BME280;9379;52.134;11.576;2023-04-08T09:34:21;101838.19;;;9.41;100.00
18500;BME280;9379;52.134;11.576;2023-04-08T09:36:48;101824.66;;;9.73;100.00
18500;BME280;9379;52.134;11.576;2023-04-08T09:39:15;101807.22;;;9.96;100.00
18500;BME280;9379;52.134;11.576;2023-04-08T09:41:47;101819.84;;;9.65;100.00
18500;BME280;9379;52.134;11.576;2023-04-08T09:44:18;101824.41;;;9.63;100.00
18500;BME280;9379;52.134;11.576;2023-04-08T09:46:55;101831.16;;;9.81;100.00
18500;BME280;9379;52.134;11.576;2023-04-08T09:49:29;101819.41;;;9.44;100.00
18500;BME280;9379;52.134;11.576;2023-04-08T09:52:06;101820.50;;;9.96;100.00
18500;BME280;9379;52.134;11.576;2023-04-08T09:54:41;101831.47;;;10.16;100.00
18500;BME280;9379;52.134;11.576;2023-04-08T09:57:13;101822.13;;;9.84;100.00
18500;BME280;9379;52.134;11.576;2023-04-08T09:59:47;101805.50;;;9.68;100.00
18500;BME280;9379;52.134;11.576;2023-04-08T10:02:18;101822.28;;;9.95;100.00
18500;BME280;9379;52.134;11.576;2023-04-08T10:04:47;101823.91;;;9.98;100.00
18500;BME280;9379;52.134;11.576;2023-04-08T10:07:20;101844.78;;;9.62;100.00
18500;BME280;9379;52.134;11.576;2023-04-08T10:09:47;101832.97;;;9.81;100.00
18500;BME280;9379;52.134;11.576;2023-04-08T10:12:19;101836.38;;;10.10;100.00
18500;BME280;9379;52.134;11.576;2023-04-08T10:17:49;101842.56;;;9.69;100.00
18500;BME280;9379;52.134;11.576;2023-04-08T10:20:40;101826.09;;;9.64;100.00
18500;BME280;9379;52.134;11.576;2023-04-08T10:23:09;101827.06;;;9.90;100.00
18500;BME280;9379;52.134;11.576;2023-04-08T10:25:39;101831.56;;;9.75;100.00
18500;BME280;9379;52.134;11.576;2023-04-08T10:28:26;101855.94;;;9.94;100.00
18500;BME280;9379;52.134;11.576;2023-04-08T10:30:58;101862.84;;;9.84;100.00
18500;BME280;9379;52.134;11.576;2023-04-08T10:33:31;101836.66;;;9.78;100.00
18500;BME280;9379;52.134;11.576;2023-04-08T10:36:10;101831.13;;;9.96;100.00
18500;BME280;9379;52.134;11.576;2023-04-08T10:38:42;101861.06;;;9.71;100.00
18500;BME280;9379;52.134;11.576;2023-04-08T10:41:17;101825.13;;;9.92;100.00
18500;BME280;9379;52.134;11.576;2023-04-08T10:43:55;101856.91;;;9.67;100.00
18500;BME280;9379;52.134;11.576;2023-04-08T10:46:26;101861.25;;;9.94;100.00
18500;BME280;9379;52.134;11.576;2023-04-08T10:49:01;101863.16;;;9.92;100.00
18500;BME280;9379;52.134;11.576;2023-04-08T10:51:30;101835.81;;;10.05;100.00
18500;BME280;9379;52.134;11.576;2023-04-08T10:54:10;101832.38;;;9.90;100.00
18500;BME280;9379;52.134;11.576;2023-04-08T10:56:43;101842.63;;;10.09;100.00
18500;BME280;9379;52.134;11.576;2023-04-08T10:59:13;101831.38;;;10.45;100.00
18500;BME280;9379;52.134;11.576;2023-04-08T11:01:43;101837.88;;;9.87;100.00
18500;BME280;9379;52.134;11.576;2023-04-08T11:04:14;101854.25;;;9.93;100.00
18500;BME280;9379;52.134;11.576;2023-04-08T11:06:45;101850.19;;;10.15;100.00
18500;BME280;9379;52.134;11.576;2023-04-08T11:09:13;101861.44;;;10.18;100.00
18500;BME280;9379;52.134;11.576;2023-04-08T11:11:41;101851.47;;;10.49;98.85
18500;BME280;9379;52.134;11.576;2023-04-08T11:14:13;101840.78;;;9.97;100.00
18500;BME280;9379;52.134;11.576;2023-04-08T11:16:41;101835.16;;;10.01;100.00
18500;BME280;9379;52.134;11.576;2023-04-08T11:19:08;101853.13;;;10.25;100.00
18500;BME280;9379;52.134;11.576;2023-04-08T11:21:38;101844.28;;;9.70;100.00
18500;BME280;9379;52.134;11.576;2023-04-08T11:24:12;101838.84;;;9.86;100.00
18500;BME280;9379;52.134;11.576;2023-04-08T11:26:41;101857.56;;;9.97;100.00
18500;BME280;9379;52.134;11.576;2023-04-08T11:29:16;101848.34;;;10.03;100.00
18500;BME280;9379;52.134;11.576;2023-04-08T11:31:43;101859.66;;;10.46;99.96
18500;BME280;9379;52.134;11.576;2023-04-08T11:34:11;101843.56;;;10.35;98.58
18500;BME280;9379;52.134;11.576;2023-04-08T11:36:47;101846.44;;;10.32;99.41
18500;BME280;9379;52.134;11.576;2023-04-08T11:39:17;101869.56;;;10.57;97.94
18500;BME280;9379;52.134;11.576;2023-04-08T11:41:44;101854.25;;;10.86;95.93
18500;BME280;9379;52.134;11.576;2023-04-08T11:44:11;101865.06;;;10.32;96.87
18500;BME280;9379;52.134;11.576;2023-04-08T11:46:51;101861.56;;;10.44;98.41
18500;BME280;9379;52.134;11.576;2023-04-08T11:49:22;101866.78;;;10.45;98.44
18500;BME280;9379;52.134;11.576;2023-04-08T11:51:59;101853.81;;;10.54;97.52
18500;BME280;9379;52.134;11.576;2023-04-08T11:54:27;101857.13;;;10.57;97.14
18500;BME280;9379;52.134;11.576;2023-04-08T11:56:55;101849.03;;;10.97;95.25
18500;BME280;9379;52.134;11.576;2023-04-08T11:59:22;101851.06;;;10.80;95.92
18500;BME280;9379;52.134;11.576;2023-04-08T12:01:52;101871.03;;;10.61;98.40
18500;BME280;9379;52.134;11.576;2023-04-08T12:04:19;101857.22;;;11.06;96.82
18500;BME280;9379;52.134;11.576;2023-04-08T12:06:46;101860.63;;;11.08;96.14
18500;BME280;9379;52.134;11.576;2023-04-08T12:09:16;101854.03;;;11.14;94.71
18500;BME280;9379;52.134;11.576;2023-04-08T12:11:43;101880.84;;;11.36;94.18
18500;BME280;9379;52.134;11.576;2023-04-08T12:14:14;101853.28;;;11.25;94.88
18500;BME280;9379;52.134;11.576;2023-04-08T12:16:46;101834.00;;;11.21;94.25
18500;BME280;9379;52.134;11.576;2023-04-08T12:19:18;101841.59;;;11.02;95.70
18500;BME280;9379;52.134;11.576;2023-04-08T12:21:50;101861.81;;;11.04;96.53
18500;BME280;9379;52.134;11.576;2023-04-08T12:24:18;101862.41;;;11.21;96.08
18500;BME280;9379;52.134;11.576;2023-04-08T12:26:45;101863.94;;;11.12;96.37
18500;BME280;9379;52.134;11.576;2023-04-08T12:29:15;101866.00;;;11.94;93.44
18500;BME280;9379;52.134;11.576;2023-04-08T12:31:43;101875.72;;;12.31;91.60
18500;BME280;9379;52.134;11.576;2023-04-08T12:34:15;101876.94;;;12.38;91.41
18500;BME280;9379;52.134;11.576;2023-04-08T12:37:06;101862.16;;;12.34;90.35
18500;BME280;9379;52.134;11.576;2023-04-08T12:39:36;101853.78;;;11.66;93.58
18500;BME280;9379;52.134;11.576;2023-04-08T12:42:06;101874.53;;;11.87;92.86
18500;BME280;9379;52.134;11.576;2023-04-08T12:44:33;101859.59;;;11.60;94.04
18500;BME280;9379;52.134;11.576;2023-04-08T12:47:01;101862.41;;;11.46;93.40
18500;BME280;9379;52.134;11.576;2023-04-08T12:49:31;101855.03;;;11.50;94.46
18500;BME280;9379;52.134;11.576;2023-04-08T12:51:59;101867.47;;;11.98;91.41
18500;BME280;9379;52.134;11.576;2023-04-08T12:54:29;101851.47;;;11.98;91.44
18500;BME280;9379;52.134;11.576;2023-04-08T12:57:00;101867.00;;;12.29;90.63
18500;BME280;9379;52.134;11.576;2023-04-08T12:59:29;101875.44;;;11.98;93.06
18500;BME280;9379;52.134;11.576;2023-04-08T13:01:58;101875.25;;;11.52;93.12
18500;BME280;9379;52.134;11.576;2023-04-08T13:04:28;101865.69;;;12.10;90.97
18500;BME280;9379;52.134;11.576;2023-04-08T13:06:55;101852.38;;;12.10;90.47
18500;BME280;9379;52.134;11.576;2023-04-08T13:09:26;101846.44;;;12.07;90.70